Terminal Aerodrome Forecast
Issued by NWS

Current Version | Previous Version | Text Only | Print | Product List | Glossary Off
Versions: 1 2 3 4 5 6 7 8 9 10 11 12 13 14 15 16 17 18 19 20

000
FTUS41 KPBZ 272320
TAFHLG
TAF
KHLG 272320Z 2800/2824 26010G20KT P6SM BKN025
      TEMPO 2800/2801 3SM -SHRA BKN025
     FM280200 23010G20KT P6SM OVC018
     FM280800 24008KT P6SM -SHRA OVC008
     FM281300 25008G15KT P6SM -SHRA OVC015
     FM281800 28010KT P6SM BKN025
     FM282200 26006KT P6SM BKN035=

USA.gov is the U.S. government's official web portal to all federal, state and local government web resources and services.